Time;durP1;ratioP1;P1;durP2;ratioP2;P2;SDS_P1;SDS_P2;PMS_P1;PMS_P2;Temp;Humidity;BMP_temperature;BMP_pressure;BME280_temperature;BME280_humidity;BME280_pressure;Samples;Min_cycle;Max_cycle;Signal;HPM_P1;HPM_P2
2023/02/26 00:02:02;;;;;;;18.33;6.60;;;;;;;15.13;49.72;93704.38;5053522;28;20452;-75
2023/02/26 00:04:29;;;;;;;14.53;6.00;;;;;;;15.21;49.92;93711.38;5053158;28;20546;-74
2023/02/26 00:06:56;;;;;;;19.20;6.33;;;;;;;15.23;49.68;93723.38;5053198;28;20459;-75
2023/02/26 00:09:24;;;;;;;18.90;6.30;;;;;;;14.97;50.65;93723.09;5052936;28;20449;-76
2023/02/26 00:11:51;;;;;;;18.60;5.70;;;;;;;14.97;50.76;93725.72;5053049;28;20449;-75
2023/02/26 00:14:18;;;;;;;13.23;5.67;;;;;;;15.05;50.57;93721.19;5053298;28;20503;-75
2023/02/26 00:16:50;;;;;;;12.27;6.57;;;;;;;14.96;51.00;93719.63;5053044;28;20451;-75
2023/02/26 00:19:18;;;;;;;22.93;6.47;;;;;;;14.92;51.14;93707.78;5053015;28;20710;-75
2023/02/26 00:21:46;;;;;;;9.90;5.73;;;;;;;14.82;51.02;93713.38;5052921;28;20446;-75
2023/02/26 00:24:13;;;;;;;8.93;6.40;;;;;;;14.81;51.87;93695.91;5017842;28;20485;-74
2023/02/26 00:26:41;;;;;;;10.07;6.13;;;;;;;14.90;52.49;93701.88;5052934;28;20441;-74
2023/02/26 00:29:08;;;;;;;13.83;5.47;;;;;;;14.78;52.02;93708.66;5052822;28;20460;-74
2023/02/26 00:31:35;;;;;;;23.07;6.70;;;;;;;14.78;51.89;93712.13;5052634;28;20863;-75
2023/02/26 00:34:03;;;;;;;8.40;5.97;;;;;;;14.82;52.04;93697.53;5052978;28;20876;-74
2023/02/26 00:36:38;;;;;;;15.00;6.93;;;;;;;14.90;51.58;93715.09;5052561;28;20987;-74
2023/02/26 00:39:13;;;;;;;13.33;6.00;;;;;;;14.73;52.44;93697.81;5017404;28;20437;-74
2023/02/26 00:41:42;;;;;;;9.03;5.63;;;;;;;14.62;52.30;93693.00;5052784;28;20480;-74
2023/02/26 00:44:10;;;;;;;16.00;6.13;;;;;;;14.72;51.53;93680.31;5052443;28;20581;-73
2023/02/26 00:46:45;;;;;;;14.83;6.50;;;;;;;14.59;52.24;93681.00;5052494;28;20447;-75
2023/02/26 00:49:20;;;;;;;8.17;6.10;;;;;;;14.52;52.83;93664.25;5018320;28;20441;-74
2023/02/26 00:51:51;;;;;;;9.50;6.03;;;;;;;14.53;52.49;93671.16;5052333;28;20810;-74
2023/02/26 00:54:21;;;;;;;17.03;5.67;;;;;;;14.50;52.14;93655.69;5017858;28;20847;-74
2023/02/26 00:56:50;;;;;;;21.20;6.00;;;;;;;14.54;51.83;93659.59;5052496;28;20527;-74
2023/02/26 00:59:18;;;;;;;9.17;5.30;;;;;;;14.39;51.84;93662.22;5052363;28;20889;-74
2023/02/26 01:01:45;;;;;;;15.90;7.43;;;;;;;14.42;51.67;93648.66;5052112;28;20448;-74
2023/02/26 01:04:13;;;;;;;11.00;6.10;;;;;;;14.55;52.10;93650.69;5052503;28;20489;-74
2023/02/26 01:06:43;;;;;;;11.23;5.30;;;;;;;14.54;51.29;93662.25;5052257;28;20441;-74
2023/02/26 01:09:17;;;;;;;19.93;6.40;;;;;;;14.52;51.59;93658.97;5033161;28;20501;-74
2023/02/26 01:11:44;;;;;;;14.00;5.07;;;;;;;14.64;51.06;93656.66;5052034;28;20451;-75
2023/02/26 01:14:13;;;;;;;19.27;6.53;;;;;;;14.58;50.85;93652.94;5052189;28;20451;-74
2023/02/26 01:16:49;;;;;;;12.07;6.37;;;;;;;14.61;50.63;93642.03;5052118;28;20450;-74
2023/02/26 01:19:24;;;;;;;11.73;5.80;;;;;;;14.55;50.51;93642.75;5052187;28;20456;-74
2023/02/26 01:21:56;;;;;;;11.57;6.07;;;;;;;14.50;50.27;93645.16;5052062;28;20531;-75
2023/02/26 01:24:25;;;;;;;15.03;5.60;;;;;;;14.49;50.35;93635.59;5051892;28;20990;-74
2023/02/26 01:26:53;;;;;;;11.80;5.20;;;;;;;14.44;50.33;93630.03;5052005;28;20486;-74
2023/02/26 01:29:22;;;;;;;26.93;6.37;;;;;;;14.48;49.89;93633.94;5052169;28;20442;-74
2023/02/26 01:31:54;;;;;;;22.20;5.40;;;;;;;14.61;49.55;93631.47;5052169;28;20506;-75
2023/02/26 01:34:26;;;;;;;15.77;5.30;;;;;;;14.69;49.38;93618.13;5051981;28;20863;-74
2023/02/26 01:37:00;;;;;;;20.63;5.47;;;;;;;14.54;49.80;93598.88;5052010;28;20515;-74
2023/02/26 01:39:32;;;;;;;10.87;5.57;;;;;;;14.35;50.73;93612.63;5052059;28;20446;-75
2023/02/26 01:42:06;;;;;;;7.40;5.10;;;;;;;14.55;49.73;93613.72;5051936;28;20928;-74
2023/02/26 01:44:40;;;;;;;15.97;4.67;;;;;;;14.58;49.05;93610.72;5051810;28;20495;-74
2023/02/26 01:47:17;;;;;;;14.30;5.80;;;;;;;14.58;49.32;93610.72;5051954;28;20468;-74
2023/02/26 01:49:45;;;;;;;8.50;5.83;;;;;;;14.75;48.54;93577.81;5017813;28;20503;-74
2023/02/26 01:52:51;;;;;;;14.50;6.00;;;;;;;14.84;48.37;93583.78;5051991;28;20452;-74
2023/02/26 01:55:20;;;;;;;19.30;5.50;;;;;;;14.91;47.59;93575.91;4990205;28;20490;-74
2023/02/26 01:57:47;;;;;;;11.60;6.60;;;;;;;14.95;46.68;93563.97;4990124;28;20840;-73
2023/02/26 02:00:17;;;;;;;16.93;5.50;;;;;;;15.02;47.04;93578.03;4990311;28;20520;-73
2023/02/26 02:02:44;;;;;;;11.23;5.23;;;;;;;14.97;47.13;93568.03;4990017;28;20455;-74
2023/02/26 02:05:16;;;;;;;13.40;5.07;;;;;;;14.84;46.44;93589.06;4989881;28;20533;-74
2023/02/26 02:07:43;;;;;;;14.93;5.57;;;;;;;15.01;45.94;93573.75;4990058;28;20448;-75
2023/02/26 02:10:11;;;;;;;14.23;5.10;;;;;;;15.07;46.61;93567.75;4989969;28;21006;-74
2023/02/26 02:12:45;;;;;;;23.43;6.50;;;;;;;15.07;46.71;93579.13;4989939;28;20503;-74
2023/02/26 02:15:21;;;;;;;11.30;5.47;;;;;;;14.97;46.05;93557.47;4990068;28;20452;-74
2023/02/26 02:17:54;;;;;;;10.80;5.20;;;;;;;14.96;44.83;93528.63;4990151;28;20986;-73
2023/02/26 02:20:59;;;;;;;22.27;6.47;;;;;;;15.07;45.87;93565.09;4991027;28;20445;-74
2023/02/26 02:23:33;;;;;;;13.57;5.87;;;;;;;15.05;45.89;93569.75;4993542;28;20671;-74
2023/02/26 02:26:40;;;;;;;20.67;5.03;;;;;;;14.88;46.33;93559.44;4993301;28;20490;-74
2023/02/26 02:29:33;;;;;;;13.90;6.17;;;;;;;14.91;45.92;93586.47;4935354;29;20458;-74
2023/02/26 02:32:07;;;;;;;10.53;5.30;;;;;;;14.85;46.22;93562.47;4956649;28;20937;-74
2023/02/26 02:34:38;;;;;;;12.40;7.17;;;;;;;14.79;46.60;93584.34;4960322;28;20486;-74
2023/02/26 02:37:11;;;;;;;20.70;5.27;;;;;;;14.85;46.48;93593.34;4993243;28;20856;-74
2023/02/26 02:39:42;;;;;;;23.40;5.73;;;;;;;14.81;46.13;93568.31;4993130;28;20472;-72
2023/02/26 02:42:21;;;;;;;12.37;6.90;;;;;;;14.85;45.29;93570.38;4993264;28;20505;-75
2023/02/26 02:44:52;;;;;;;13.97;5.57;;;;;;;14.92;45.28;93569.63;4993023;28;20486;-74
2023/02/26 02:47:22;;;;;;;13.07;5.03;;;;;;;14.98;46.57;93600.56;4993002;28;20499;-74
2023/02/26 02:49:53;;;;;;;17.70;5.03;;;;;;;14.92;45.16;93569.63;4993107;28;20522;-74
2023/02/26 02:52:29;;;;;;;11.17;4.17;;;;;;;14.85;43.53;93561.66;4993203;28;20444;-73
2023/02/26 02:55:02;;;;;;;9.10;4.10;;;;;;;14.92;43.59;93572.25;4992921;28;20445;-74
2023/02/26 02:57:35;;;;;;;8.43;4.37;;;;;;;14.97;43.58;93594.47;4992805;28;20526;-73
2023/02/26 03:00:05;;;;;;;10.07;4.67;;;;;;;15.05;43.07;93570.59;4992500;28;20584;-74
2023/02/26 03:02:37;;;;;;;18.30;4.20;;;;;;;15.14;43.62;93621.47;4992805;28;20516;-74
2023/02/26 03:05:04;;;;;;;11.20;3.50;;;;;;;15.11;42.44;93539.94;5013936;28;20503;-74
2023/02/26 03:07:35;;;;;;;22.37;5.70;;;;;;;15.10;42.63;93559.44;5035707;28;20445;-74
2023/02/26 03:10:02;;;;;;;10.53;4.53;;;;;;;15.16;42.39;93566.59;5054440;28;20450;-74
2023/02/26 03:12:32;;;;;;;13.03;4.33;;;;;;;15.07;41.38;93563.28;5019301;28;20446;-74
2023/02/26 03:15:00;;;;;;;9.27;4.70;;;;;;;15.22;41.48;93571.13;5053939;28;20461;-74
2023/02/26 03:17:36;;;;;;;8.53;4.00;;;;;;;15.25;41.90;93565.44;5054359;28;20537;-74
2023/02/26 03:20:18;;;;;;;10.83;5.30;;;;;;;15.26;41.62;93580.28;5054544;28;20500;-74
2023/02/26 03:22:52;;;;;;;11.40;4.50;;;;;;;15.26;40.95;93558.34;5054316;28;20447;-75
2023/02/26 03:25:24;;;;;;;7.30;4.10;;;;;;;15.36;41.38;93566.78;5053616;28;20488;-74
2023/02/26 03:27:58;;;;;;;13.27;4.60;;;;;;;15.41;41.57;93562.53;5054110;28;20530;-74
2023/02/26 03:30:32;;;;;;;14.07;5.27;;;;;;;15.48;41.09;93566.03;5053875;28;20448;-75
2023/02/26 03:33:05;;;;;;;19.80;4.53;;;;;;;15.45;41.15;93579.66;5054088;28;20452;-75
2023/02/26 03:35:38;;;;;;;7.97;3.60;;;;;;;15.32;40.63;93561.03;5054091;28;20533;-75
2023/02/26 03:38:12;;;;;;;9.03;4.00;;;;;;;15.22;40.52;93539.41;5054048;28;20457;-74
2023/02/26 03:40:44;;;;;;;16.03;4.07;;;;;;;15.31;41.14;93571.78;5053729;28;20439;-74
2023/02/26 03:43:16;;;;;;;12.73;4.43;;;;;;;15.14;41.62;93563.34;5053606;28;20488;-74
2023/02/26 03:45:47;;;;;;;5.73;4.10;;;;;;;14.95;42.58;93548.13;5053464;28;20482;-74
2023/02/26 03:48:20;;;;;;;17.70;4.77;;;;;;;14.98;41.96;93537.97;5053538;28;20495;-74
2023/02/26 03:50:49;;;;;;;11.60;4.60;;;;;;;15.01;42.23;93563.19;5053714;28;20452;-76
2023/02/26 03:53:22;;;;;;;10.63;4.40;;;;;;;14.98;42.22;93555.66;5053390;28;20445;-75
2023/02/26 03:55:54;;;;;;;11.43;4.80;;;;;;;14.91;41.64;93573.28;5053673;28;20499;-74
2023/02/26 03:58:21;;;;;;;13.40;4.50;;;;;;;14.90;41.80;93561.88;5053453;28;20506;-74
2023/02/26 04:00:53;;;;;;;10.40;5.10;;;;;;;14.89;41.56;93557.63;5053303;28;20532;-74
2023/02/26 04:03:27;;;;;;;8.37;4.77;;;;;;;14.93;41.99;93563.34;5053280;28;21069;-75
2023/02/26 04:05:54;;;;;;;12.70;4.70;;;;;;;14.76;42.30;93555.69;5053454;28;20495;-74
2023/02/26 04:08:23;;;;;;;22.80;5.20;;;;;;;14.82;42.27;93539.06;5053213;28;20959;-74
2023/02/26 04:10:54;;;;;;;15.50;5.83;;;;;;;14.76;42.70;93531.91;5016472;28;20503;-74
2023/02/26 04:13:21;;;;;;;13.93;4.30;;;;;;;14.75;42.58;93550.59;5052515;28;20449;-74
2023/02/26 04:15:47;;;;;;;18.13;5.60;;;;;;;14.65;42.54;93544.78;5053671;28;20458;-74
2023/02/26 04:18:14;;;;;;;17.47;6.30;;;;;;;14.72;42.31;93527.16;5053740;28;20456;-74
2023/02/26 04:20:42;;;;;;;14.50;7.40;;;;;;;14.66;42.95;93538.50;5053454;28;20446;-73
2023/02/26 04:23:09;;;;;;;12.10;7.37;;;;;;;14.69;42.38;93541.56;5018398;28;20576;-73
2023/02/26 04:25:36;;;;;;;17.63;6.80;;;;;;;14.70;42.65;93529.19;5034420;28;20490;-74
2023/02/26 04:28:03;;;;;;;25.57;7.17;;;;;;;14.66;42.34;93522.66;5053326;28;20458;-74
2023/02/26 04:30:29;;;;;;;12.33;5.80;;;;;;;14.69;42.60;93512.53;5034314;28;20501;-74
2023/02/26 04:32:56;;;;;;;17.03;7.17;;;;;;;14.80;42.28;93519.97;5017987;28;20880;-74
2023/02/26 04:35:23;;;;;;;16.90;5.87;;;;;;;14.67;42.21;93517.19;5034180;28;20477;-74
2023/02/26 04:37:51;;;;;;;10.73;4.60;;;;;;;14.55;42.16;93518.69;5052849;28;20472;-75
2023/02/26 04:40:18;;;;;;;10.70;5.53;;;;;;;14.61;42.47;93502.09;5052557;28;20781;-75
2023/02/26 04:42:46;;;;;;;20.03;4.93;;;;;;;14.60;41.45;93505.75;5040723;28;20443;-74
2023/02/26 04:45:13;;;;;;;7.57;3.53;;;;;;;14.76;41.21;93524.00;5032538;28;20509;-75
2023/02/26 04:47:40;;;;;;;15.10;4.43;;;;;;;14.86;41.12;93508.63;5032418;28;20453;-74
2023/02/26 04:50:08;;;;;;;11.60;6.30;;;;;;;14.84;41.00;93520.41;5032901;28;20447;-73
2023/02/26 04:52:34;;;;;;;13.87;4.87;;;;;;;14.84;41.24;93492.16;5032748;28;20446;-74
2023/02/26 04:55:03;;;;;;;27.77;5.20;;;;;;;14.94;41.22;93493.66;5032699;28;20438;-75
2023/02/26 04:57:30;;;;;;;15.27;4.30;;;;;;;15.02;42.34;93491.69;5032595;28;20454;-75
2023/02/26 04:59:57;;;;;;;12.17;4.70;;;;;;;14.85;41.38;93475.31;5032550;28;20443;-74
2023/02/26 05:02:24;;;;;;;15.70;5.73;;;;;;;14.85;41.06;93496.44;5032266;28;20508;-74
2023/02/26 05:04:51;;;;;;;13.63;5.43;;;;;;;14.93;40.73;93497.31;5032335;28;20500;-75
2023/02/26 05:07:17;;;;;;;20.87;5.00;;;;;;;14.98;40.15;93476.41;5032420;28;20574;-75
2023/02/26 05:09:44;;;;;;;9.07;4.00;;;;;;;15.06;39.81;93490.31;5034594;28;20814;-74
2023/02/26 05:12:12;;;;;;;13.23;4.73;;;;;;;15.11;41.43;93458.03;5052351;28;20933;-75
2023/02/26 05:14:39;;;;;;;7.87;5.57;;;;;;;14.89;41.46;93475.75;5052070;28;20499;-73
2023/02/26 05:17:06;;;;;;;14.63;4.80;;;;;;;14.59;41.60;93479.53;5052571;28;20446;-73
2023/02/26 05:19:33;;;;;;;21.73;5.10;;;;;;;14.54;40.91;93493.31;5052318;28;20934;-73
2023/02/26 05:21:59;;;;;;;19.80;5.50;;;;;;;14.64;40.81;93475.31;5052793;28;20453;-73
2023/02/26 05:24:26;;;;;;;20.53;4.53;;;;;;;14.68;40.62;93487.13;5052437;28;20453;-74
2023/02/26 05:26:53;;;;;;;15.93;4.87;;;;;;;14.84;41.08;93481.59;5052457;28;20491;-74
2023/02/26 05:29:21;;;;;;;15.97;5.17;;;;;;;14.89;40.25;93473.09;5052446;28;20509;-74
2023/02/26 05:31:48;;;;;;;24.20;5.47;;;;;;;15.03;40.25;93476.66;5052361;28;20913;-74
2023/02/26 05:34:15;;;;;;;15.40;4.27;;;;;;;15.10;40.74;93496.03;5052285;28;20476;-74
2023/02/26 05:36:41;;;;;;;14.90;4.30;;;;;;;15.25;40.04;93490.63;5052401;28;20459;-74
2023/02/26 05:39:09;;;;;;;26.07;5.60;;;;;;;15.34;39.61;93482.38;5052410;28;20932;-74
2023/02/26 05:41:36;;;;;;;10.20;4.40;;;;;;;15.46;39.21;93467.59;5052060;28;20509;-74
2023/02/26 05:44:03;;;;;;;16.83;5.23;;;;;;;15.56;39.22;93454.03;5052250;28;21201;-75
2023/02/26 05:46:31;;;;;;;26.83;4.90;;;;;;;15.67;38.19;93468.56;5052256;28;20483;-74
2023/02/26 05:48:58;;;;;;;24.33;5.70;;;;;;;15.77;39.03;93464.53;5052284;28;20442;-73
2023/02/26 05:51:25;;;;;;;13.13;4.07;;;;;;;15.91;37.29;93467.25;5052268;28;20515;-75
2023/02/26 05:53:51;;;;;;;21.13;7.50;;;;;;;15.91;37.80;93476.00;5052713;28;20809;-75
2023/02/26 05:56:18;;;;;;;22.83;7.63;;;;;;;15.96;37.57;93478.88;5055169;28;20532;-73
2023/02/26 05:58:45;;;;;;;13.67;5.20;;;;;;;16.00;37.03;93474.81;5056224;28;20524;-74
2023/02/26 06:01:12;;;;;;;14.80;6.00;;;;;;;15.98;36.54;93468.91;5056207;28;20461;-75
2023/02/26 06:03:43;;;;;;;14.93;4.40;;;;;;;16.01;37.48;93471.16;5055896;28;20455;-74
2023/02/26 06:06:09;;;;;;;13.57;4.70;;;;;;;15.86;37.56;93465.19;5055970;28;20490;-75
2023/02/26 06:08:37;;;;;;;15.63;5.80;;;;;;;15.90;38.56;93492.91;5020821;28;20524;-75
2023/02/26 06:11:04;;;;;;;15.00;4.10;;;;;;;15.94;37.84;93480.09;5056021;28;20451;-74
2023/02/26 06:13:31;;;;;;;22.90;5.13;;;;;;;15.92;37.93;93477.66;5055708;28;20452;-74
2023/02/26 06:15:57;;;;;;;9.00;3.30;;;;;;;15.97;37.28;93495.56;5055610;28;20487;-74
2023/02/26 06:18:24;;;;;;;17.07;4.83;;;;;;;15.99;37.16;93459.16;5055705;28;20458;-74
2023/02/26 06:20:52;;;;;;;18.90;4.17;;;;;;;16.00;36.74;93464.25;5055952;28;20442;-74
2023/02/26 06:23:19;;;;;;;27.17;5.30;;;;;;;16.13;36.59;93486.47;5055956;28;20840;-74
2023/02/26 06:25:46;;;;;;;10.60;6.30;;;;;;;16.14;36.16;93490.75;5055648;28;20453;-75
2023/02/26 06:28:12;;;;;;;27.17;5.10;;;;;;;16.25;36.13;93508.72;5020340;28;20502;-74
2023/02/26 06:30:40;;;;;;;13.97;4.70;;;;;;;16.34;36.38;93500.38;5020215;28;20466;-74
2023/02/26 06:33:06;;;;;;;21.20;5.53;;;;;;;16.46;36.47;93500.63;5055467;28;20491;-74
2023/02/26 06:35:33;;;;;;;17.50;4.60;;;;;;;16.58;36.02;93483.13;5055097;28;20502;-74
2023/02/26 06:38:01;;;;;;;24.63;5.13;;;;;;;16.70;36.41;93486.84;5055751;28;20452;-74
2023/02/26 06:40:29;;;;;;;9.43;4.70;;;;;;;16.76;35.38;93492.34;5055555;28;20523;-74
2023/02/26 06:42:56;;;;;;;14.70;4.23;;;;;;;16.88;35.96;93496.06;5055354;28;20449;-74
2023/02/26 06:45:23;;;;;;;47.67;5.00;;;;;;;16.98;35.44;93483.19;5055161;28;20449;-74
2023/02/26 06:47:50;;;;;;;6.87;4.83;;;;;;;17.08;34.18;93504.03;5055288;28;20489;-75
2023/02/26 06:50:18;;;;;;;14.70;4.10;;;;;;;17.15;34.78;93494.22;5055325;28;20833;-73
2023/02/26 06:52:44;;;;;;;19.97;4.80;;;;;;;17.18;34.58;93494.63;5055157;28;20923;-74
2023/02/26 06:55:13;;;;;;;11.13;4.70;;;;;;;17.18;33.48;93493.81;5054879;28;20924;-74
2023/02/26 06:57:40;;;;;;;31.83;5.77;;;;;;;17.11;34.06;93485.06;5054938;28;20804;-74
2023/02/26 07:00:08;;;;;;;21.50;4.47;;;;;;;17.12;33.81;93478.75;5055375;28;20508;-73
2023/02/26 07:02:35;;;;;;;33.60;13.57;;;;;;;17.32;42.04;93485.63;5055584;28;20461;-77
2023/02/26 07:05:02;;;;;;;18.93;5.03;;;;;;;17.44;35.92;93477.06;5055190;28;20450;-74
2023/02/26 07:07:28;;;;;;;20.20;5.20;;;;;;;17.42;33.83;93469.31;5053840;28;20487;-73
2023/02/26 07:09:55;;;;;;;29.70;9.73;;;;;;;17.46;34.61;93428.09;5053002;28;20458;-74
2023/02/26 07:12:23;;;;;;;13.23;5.33;;;;;;;17.52;33.34;93458.28;5054240;28;20511;-73
2023/02/26 07:14:50;;;;;;;22.10;5.93;;;;;;;17.65;37.57;93479.50;5032448;28;20508;-73
2023/02/26 07:17:19;;;;;;;23.90;5.33;;;;;;;17.67;33.24;93458.06;5053308;28;20910;-73
2023/02/26 07:19:46;;;;;;;12.30;4.20;;;;;;;17.78;33.72;93460.09;5020143;28;20508;-74
2023/02/26 07:22:14;;;;;;;20.77;5.10;;;;;;;18.00;33.14;93444.72;5054805;28;20447;-74
2023/02/26 07:24:41;;;;;;;14.20;5.00;;;;;;;18.18;32.24;93458.09;5053905;28;20452;-74
2023/02/26 07:27:08;;;;;;;44.60;5.87;;;;;;;18.41;32.31;93425.69;5054200;28;21063;-74
2023/02/26 07:29:36;;;;;;;20.73;3.87;;;;;;;18.47;31.38;93480.63;5054160;28;20504;-74
2023/02/26 07:32:03;;;;;;;19.80;5.33;;;;;;;18.56;31.39;93432.34;5019044;28;20512;-73
2023/02/26 07:34:30;;;;;;;19.30;4.83;;;;;;;18.58;30.82;93450.75;5053713;28;20486;-74
2023/02/26 07:36:58;;;;;;;23.47;5.70;;;;;;;18.74;32.43;93457.41;5018650;28;20880;-73
2023/02/26 07:39:25;;;;;;;13.10;4.60;;;;;;;18.93;30.98;93467.09;5052783;28;20511;-75
2023/02/26 07:41:52;;;;;;;22.17;5.10;;;;;;;19.05;30.94;93435.28;5050181;28;20458;-74
2023/02/26 07:44:19;;;;;;;25.80;6.30;;;;;;;19.23;30.85;93461.13;5052350;28;20474;-74
2023/02/26 07:46:47;;;;;;;15.73;5.97;;;;;;;19.34;29.63;93457.75;5053668;28;20849;-74
2023/02/26 07:49:14;;;;;;;12.80;4.47;;;;;;;19.39;29.45;93434.81;5053838;28;20539;-75
2023/02/26 07:51:44;;;;;;;16.33;5.10;;;;;;;19.43;29.34;93445.81;5042351;28;20460;-73
2023/02/26 07:54:11;;;;;;;13.73;4.97;;;;;;;19.53;28.65;93454.13;5034039;28;20465;-73
2023/02/26 07:56:38;;;;;;;11.53;3.83;;;;;;;19.33;30.53;93432.19;5053323;28;20450;-73
2023/02/26 07:59:05;;;;;;;22.90;5.43;;;;;;;19.43;29.77;93480.41;5053023;28;20445;-74
2023/02/26 08:01:32;;;;;;;34.67;7.60;;;;;;;19.43;29.30;93462.59;5052999;28;20445;-73
2023/02/26 08:04:00;;;;;;;30.40;5.63;;;;;;;19.34;29.01;93457.75;5052476;28;20452;-73
2023/02/26 08:06:28;;;;;;;12.60;4.40;;;;;;;19.49;30.36;93464.38;5053386;28;20496;-72
2023/02/26 08:08:54;;;;;;;25.43;5.57;;;;;;;19.48;28.37;93469.91;5053182;28;20463;-73
2023/02/26 08:11:21;;;;;;;18.10;5.30;;;;;;;19.33;28.89;93429.53;5052956;28;20454;-73
2023/02/26 08:13:48;;;;;;;12.20;5.43;;;;;;;19.50;28.93;93451.88;5053309;28;20796;-74
2023/02/26 08:16:15;;;;;;;30.67;5.60;;;;;;;19.52;28.81;93431.19;5018187;28;20455;-73
2023/02/26 08:18:41;;;;;;;26.83;4.97;;;;;;;19.62;28.42;93459.97;5017314;28;20461;-74
2023/02/26 08:21:10;;;;;;;16.03;5.27;;;;;;;19.79;30.22;93487.66;5052454;28;20802;-74
2023/02/26 08:23:38;;;;;;;22.13;5.30;;;;;;;19.75;29.03;93459.84;5053037;28;20951;-74
2023/02/26 08:26:07;;;;;;;17.20;4.93;;;;;;;19.85;28.76;93475.28;5053146;28;20479;-73
2023/02/26 08:28:34;;;;;;;17.87;5.47;;;;;;;20.03;28.67;93470.81;5053017;28;20882;-74
2023/02/26 08:31:01;;;;;;;26.80;8.20;;;;;;;20.10;29.25;93449.41;5033975;28;20445;-74
2023/02/26 08:33:29;;;;;;;17.77;4.70;;;;;;;20.10;28.23;93478.72;5052445;28;21871;-72
2023/02/26 08:35:56;;;;;;;17.27;5.50;;;;;;;20.07;28.53;93489.81;5052982;28;20442;-73
2023/02/26 08:38:25;;;;;;;12.23;4.67;;;;;;;20.03;28.49;93518.72;5052715;28;20459;-73
2023/02/26 08:40:52;;;;;;;16.83;4.90;;;;;;;19.88;27.87;93474.84;5052872;28;20521;-73
2023/02/26 08:43:19;;;;;;;17.77;4.87;;;;;;;19.96;28.06;93487.91;5052414;28;20456;-74
2023/02/26 08:45:47;;;;;;;13.70;4.33;;;;;;;19.49;28.28;93472.34;5052213;28;20785;-73
2023/02/26 08:48:14;;;;;;;20.00;4.70;;;;;;;19.64;28.26;93473.88;5052347;28;20559;-74
2023/02/26 08:50:41;;;;;;;8.80;4.43;;;;;;;19.26;27.83;93489.94;5052408;28;20501;-74
2023/02/26 08:53:08;;;;;;;20.87;4.33;;;;;;;19.24;28.46;93507.97;5052058;28;20450;-74
2023/02/26 08:55:36;;;;;;;21.83;4.87;;;;;;;19.34;32.71;93490.47;5052344;28;20456;-74
2023/02/26 08:58:03;;;;;;;21.30;5.63;;;;;;;19.14;27.80;93442.78;5052304;28;20444;-75
2023/02/26 09:00:30;;;;;;;24.40;4.90;;;;;;;19.21;28.19;93485.28;5051739;28;20498;-74
2023/02/26 09:02:57;;;;;;;22.27;4.83;;;;;;;19.33;27.57;93496.03;5052789;28;20448;-74
2023/02/26 09:05:24;;;;;;;17.50;4.63;;;;;;;19.52;27.75;93495.03;5051934;28;20448;-72
2023/02/26 09:07:50;;;;;;;16.70;5.03;;;;;;;19.72;27.62;93486.91;5052847;28;20489;-74
2023/02/26 09:10:18;;;;;;;19.40;5.03;;;;;;;19.85;28.62;93477.97;5052547;28;20453;-75
2023/02/26 09:12:46;;;;;;;22.53;5.63;;;;;;;19.91;27.04;93482.41;5052655;28;20464;-74
2023/02/26 09:15:14;;;;;;;7.17;3.43;;;;;;;19.84;26.62;93497.63;5052471;28;20521;-74
2023/02/26 09:17:41;;;;;;;12.30;4.23;;;;;;;19.99;27.88;93498.09;5052962;28;20465;-74
2023/02/26 09:20:10;;;;;;;18.00;5.30;;;;;;;20.26;27.46;93472.78;5052725;28;20776;-75
2023/02/26 09:22:37;;;;;;;14.37;5.00;;;;;;;20.48;26.26;93475.00;5052497;28;20456;-73
2023/02/26 09:25:04;;;;;;;19.20;4.83;;;;;;;20.50;26.53;93486.22;5016234;28;20442;-74
2023/02/26 09:27:31;;;;;;;17.93;5.20;;;;;;;20.72;26.96;93471.38;5051686;28;20493;-74
2023/02/26 09:29:59;;;;;;;28.47;5.63;;;;;;;20.68;27.70;93488.88;5044662;28;20945;-75
2023/02/26 09:32:26;;;;;;;14.20;4.80;;;;;;;20.92;27.00;93466.59;5058308;28;20457;-74
2023/02/26 09:34:53;;;;;;;16.63;4.30;;;;;;;20.71;27.28;93465.22;5059342;28;20474;-73
2023/02/26 09:37:20;;;;;;;15.83;5.67;;;;;;;21.04;27.23;93442.59;5059171;28;20465;-75
2023/02/26 09:39:47;;;;;;;17.83;5.63;;;;;;;21.23;26.84;93484.19;5059003;28;20447;-74
2023/02/26 09:42:29;;;;;;;18.40;4.80;;;;;;;21.38;26.10;93502.41;5059058;28;20446;-74
2023/02/26 09:44:58;;;;;;;17.13;4.47;;;;;;;21.54;25.49;93515.09;5027105;28;20459;-74
2023/02/26 09:47:38;;;;;;;21.20;4.60;;;;;;;21.58;25.42;93483.41;5059059;28;20489;-74
2023/02/26 09:50:11;;;;;;;23.63;6.00;;;;;;;21.57;24.99;93463.91;5058788;28;20488;-74
2023/02/26 09:52:44;;;;;;;15.97;5.33;;;;;;;21.72;24.41;93487.50;5058875;28;20458;-74
2023/02/26 09:55:15;;;;;;;10.40;4.40;;;;;;;21.83;24.18;93472.50;5059276;28;20455;-75
2023/02/26 09:57:44;;;;;;;19.80;5.07;;;;;;;21.97;24.03;93463.19;5059203;28;20497;-74
2023/02/26 10:00:22;;;;;;;13.87;5.00;;;;;;;22.06;23.59;93461.00;5024158;28;20449;-74
2023/02/26 10:03:00;;;;;;;8.87;3.73;;;;;;;22.05;23.92;93486.91;5059250;28;20509;-75
2023/02/26 10:05:37;;;;;;;14.40;4.77;;;;;;;22.13;24.14;93491.88;5058908;28;20523;-78
2023/02/26 10:08:08;;;;;;;14.50;5.33;;;;;;;22.18;23.87;93469.78;5058654;28;20496;-73
2023/02/26 10:10:44;;;;;;;13.63;5.20;;;;;;;22.23;23.30;93441.31;5058261;28;20989;-75
2023/02/26 10:13:20;;;;;;;25.20;4.53;;;;;;;21.97;23.38;93425.78;5058560;28;20458;-75
2023/02/26 10:15:49;;;;;;;21.93;5.83;;;;;;;21.84;24.63;93474.94;5058039;28;20497;-75
2023/02/26 10:18:23;;;;;;;27.37;5.30;;;;;;;21.83;23.79;93456.47;5058589;28;20505;-75
2023/02/26 10:20:55;;;;;;;14.53;4.13;;;;;;;21.92;24.99;93474.56;5058427;28;20443;-75
2023/02/26 10:23:28;;;;;;;20.03;4.73;;;;;;;21.87;24.23;93462.97;5058374;28;20447;-74
2023/02/26 10:26:11;;;;;;;8.23;3.30;;;;;;;21.85;24.13;93455.19;5057970;28;20933;-74
2023/02/26 10:28:50;;;;;;;21.90;6.13;;;;;;;21.84;24.54;93479.47;5058081;28;20487;-75
2023/02/26 10:31:24;;;;;;;15.97;5.20;;;;;;;21.70;24.40;93454.06;5058412;28;20444;-74
2023/02/26 10:33:59;;;;;;;8.87;4.10;;;;;;;21.75;25.34;93443.47;5058288;28;20478;-76
2023/02/26 10:36:29;;;;;;;20.30;4.33;;;;;;;21.65;24.82;93439.53;5058052;28;20445;-74
2023/02/26 10:39:03;;;;;;;15.43;4.40;;;;;;;21.54;25.13;93412.84;5022230;28;20523;-74
2023/02/26 10:41:33;;;;;;;14.87;4.93;;;;;;;21.36;25.71;93415.63;5055470;28;20529;-75
2023/02/26 10:44:09;;;;;;;23.27;4.90;;;;;;;21.24;25.80;93405.78;5036133;28;20438;-74
2023/02/26 10:46:46;;;;;;;13.13;4.10;;;;;;;21.06;26.10;93375.69;5055197;28;20447;-75
2023/02/26 10:49:39;;;;;;;18.97;4.77;;;;;;;20.84;26.02;93402.91;5055069;28;20483;-74
2023/02/26 10:52:13;;;;;;;50.60;7.03;;;;;;;20.55;26.46;93380.59;5019598;28;20491;-74
2023/02/26 10:54:47;;;;;;;19.43;7.57;;;;;;;20.55;38.49;93406.44;5054841;28;20507;-76
2023/02/26 10:57:21;;;;;;;14.90;5.20;;;;;;;20.91;31.75;93408.16;5054333;28;20466;-77
2023/02/26 10:59:47;;;;;;;12.93;4.20;;;;;;;20.93;27.57;93420.19;5054668;28;20569;-73
2023/02/26 11:02:33;;;;;;;13.67;4.30;;;;;;;20.78;26.95;93401.16;5054602;28;20453;-73
2023/02/26 11:05:01;;;;;;;21.90;4.70;;;;;;;20.58;27.38;93422.78;5054834;28;20804;-75
2023/02/26 11:07:31;;;;;;;14.30;4.53;;;;;;;20.34;27.17;93416.53;5054534;28;20984;-76
2023/02/26 11:09:59;;;;;;;17.70;5.30;;;;;;;20.06;27.45;93416.28;5054060;28;20438;-75
2023/02/26 11:12:26;;;;;;;13.73;4.70;;;;;;;20.16;28.64;93419.22;5034331;28;20464;-75
2023/02/26 11:14:53;;;;;;;12.27;4.03;;;;;;;20.10;27.48;93412.13;5054078;28;20448;-74
2023/02/26 11:17:26;;;;;;;15.83;7.13;;;;;;;20.03;27.50;93428.19;5054119;28;20443;-74
2023/02/26 11:19:57;;;;;;;17.70;6.10;;;;;;;19.93;27.49;93411.91;5054446;28;20441;-74
2023/02/26 11:22:27;;;;;;;21.50;4.83;;;;;;;19.94;27.81;93423.38;5054177;28;20452;-75
2023/02/26 11:24:56;;;;;;;16.67;4.90;;;;;;;19.82;27.74;93382.56;5054396;28;20443;-74
2023/02/26 11:27:26;;;;;;;9.40;4.10;;;;;;;19.60;28.44;93401.66;5054430;28;20504;-75
2023/02/26 11:29:56;;;;;;;13.50;4.17;;;;;;;19.57;29.36;93407.41;5019294;28;20453;-73
2023/02/26 11:32:29;;;;;;;14.63;5.33;;;;;;;19.53;28.59;93419.53;5054220;28;20460;-73
2023/02/26 11:34:56;;;;;;;12.83;5.03;;;;;;;19.53;28.48;93413.38;5054143;28;20487;-75
2023/02/26 11:37:28;;;;;;;10.93;4.97;;;;;;;19.55;28.74;93417.47;5018934;28;20454;-72
2023/02/26 11:39:57;;;;;;;13.33;3.67;;;;;;;19.29;28.41;93418.50;5053881;28;20775;-75